Terminal Aerodrome Forecast
Issued by NWS Raleigh/Durham, NC

Home | Current Version | Previous Version | Text Only | Print | Product List | Glossary On
Versions: 1 2 3 4 5 6 7 8 9 10 11 12 13 14 15 16 17 18 19 20 21 22 23 24 25 26 27 28 29 30 31 32 33 34 35 36 37 38 39 40 41 42 43 44 45 46 47 48 49 50
000
FTUS42 KRAH 170607 AAA
TAFFAY
TAF AMD
KFAY 170607Z 1706/1806 VRB02KT P6SM -RA FEW006 SCT070 OVC200
      TEMPO 1706/1708 4SM -SHRA BR SCT035 OVC050
     FM170830 VRB03KT 3SM BR OVC004
      TEMPO 1709/1712 1SM BR OVC002
     FM171600 02005KT P6SM OVC015
     FM171900 08005KT P6SM VCSH SCT030 OVC080
      TEMPO 1721/1724 4SM -SHRA BR OVC035=

USA.gov is the U.S. government's official web portal to all federal, state and local government web resources and services.